sensor_id;sensor_type;location;lat;lon;timestamp;pressure;altitude;pressure_sealevel;temperature;humidity
11515;BME280;5814;41.936;25.556;2022-12-07T00:01:33;99347.55;;;9.75;100.00
11515;BME280;5814;41.936;25.556;2022-12-07T00:04:00;99360.94;;;9.79;100.00
11515;BME280;5814;41.936;25.556;2022-12-07T00:06:28;99356.59;;;9.78;100.00
11515;BME280;5814;41.936;25.556;2022-12-07T00:08:55;99357.88;;;9.80;100.00
11515;BME280;5814;41.936;25.556;2022-12-07T00:11:22;99359.44;;;9.68;100.00
11515;BME280;5814;41.936;25.556;2022-12-07T00:13:52;99350.59;;;9.52;100.00
11515;BME280;5814;41.936;25.556;2022-12-07T00:16:19;99349.88;;;9.46;100.00
11515;BME280;5814;41.936;25.556;2022-12-07T00:18:45;99337.11;;;9.54;100.00
11515;BME280;5814;41.936;25.556;2022-12-07T00:21:13;99345.37;;;9.76;100.00
11515;BME280;5814;41.936;25.556;2022-12-07T00:23:40;99359.59;;;9.81;100.00
11515;BME280;5814;41.936;25.556;2022-12-07T00:26:08;99357.80;;;9.85;100.00
11515;BME280;5814;41.936;25.556;2022-12-07T00:28:34;99358.07;;;9.91;100.00
11515;BME280;5814;41.936;25.556;2022-12-07T00:31:03;99354.45;;;9.99;100.00
11515;BME280;5814;41.936;25.556;2022-12-07T00:33:29;99353.47;;;10.03;100.00
11515;BME280;5814;41.936;25.556;2022-12-07T00:35:57;99337.61;;;9.94;100.00
11515;BME280;5814;41.936;25.556;2022-12-07T00:38:24;99349.56;;;10.04;100.00
11515;BME280;5814;41.936;25.556;2022-12-07T00:40:54;99351.02;;;9.97;100.00
11515;BME280;5814;41.936;25.556;2022-12-07T00:43:20;99331.21;;;9.89;100.00
11515;BME280;5814;41.936;25.556;2022-12-07T00:45:48;99356.04;;;10.06;100.00
11515;BME280;5814;41.936;25.556;2022-12-07T00:48:15;99350.11;;;9.98;100.00
11515;BME280;5814;41.936;25.556;2022-12-07T00:50:42;99355.92;;;9.91;100.00
11515;BME280;5814;41.936;25.556;2022-12-07T00:53:09;99349.80;;;9.72;100.00
11515;BME280;5814;41.936;25.556;2022-12-07T00:55:36;99348.50;;;9.72;100.00
11515;BME280;5814;41.936;25.556;2022-12-07T00:58:03;99334.95;;;9.31;100.00
11515;BME280;5814;41.936;25.556;2022-12-07T01:00:31;99353.27;;;9.49;100.00
11515;BME280;5814;41.936;25.556;2022-12-07T01:02:58;99356.39;;;9.67;100.00
11515;BME280;5814;41.936;25.556;2022-12-07T01:05:25;99353.77;;;9.68;100.00
11515;BME280;5814;41.936;25.556;2022-12-07T01:07:52;99352.53;;;9.64;100.00
11515;BME280;5814;41.936;25.556;2022-12-07T01:10:19;99324.28;;;9.44;100.00
11515;BME280;5814;41.936;25.556;2022-12-07T01:12:46;99345.27;;;9.60;100.00
11515;BME280;5814;41.936;25.556;2022-12-07T01:15:14;99340.67;;;9.50;100.00
11515;BME280;5814;41.936;25.556;2022-12-07T01:17:41;99340.85;;;9.41;100.00
11515;BME280;5814;41.936;25.556;2022-12-07T01:20:09;99334.74;;;9.42;100.00
11515;BME280;5814;41.936;25.556;2022-12-07T01:22:37;99332.88;;;9.49;100.00
11515;BME280;5814;41.936;25.556;2022-12-07T01:25:05;99332.07;;;9.45;100.00
11515;BME280;5814;41.936;25.556;2022-12-07T01:27:32;99333.34;;;9.48;100.00
11515;BME280;5814;41.936;25.556;2022-12-07T01:29:59;99328.47;;;9.30;100.00
11515;BME280;5814;41.936;25.556;2022-12-07T01:32:26;99332.28;;;9.34;100.00
11515;BME280;5814;41.936;25.556;2022-12-07T01:34:53;99330.50;;;9.37;100.00
11515;BME280;5814;41.936;25.556;2022-12-07T01:37:20;99316.42;;;9.47;100.00
11515;BME280;5814;41.936;25.556;2022-12-07T01:39:49;99319.05;;;9.45;100.00
11515;BME280;5814;41.936;25.556;2022-12-07T01:42:15;99313.19;;;9.35;100.00
11515;BME280;5814;41.936;25.556;2022-12-07T01:47:20;99322.64;;;9.40;100.00
11515;BME280;5814;41.936;25.556;2022-12-07T01:49:48;99320.44;;;9.41;100.00
11515;BME280;5814;41.936;25.556;2022-12-07T01:54:58;99311.81;;;9.38;100.00
11515;BME280;5814;41.936;25.556;2022-12-07T01:57:24;99307.92;;;9.39;100.00
11515;BME280;5814;41.936;25.556;2022-12-07T01:59:51;99304.66;;;9.27;100.00
11515;BME280;5814;41.936;25.556;2022-12-07T02:02:21;99307.13;;;9.34;100.00
11515;BME280;5814;41.936;25.556;2022-12-07T02:04:46;99298.87;;;9.35;100.00
11515;BME280;5814;41.936;25.556;2022-12-07T02:07:13;99300.23;;;9.32;100.00
11515;BME280;5814;41.936;25.556;2022-12-07T02:09:40;99295.81;;;9.35;100.00
11515;BME280;5814;41.936;25.556;2022-12-07T02:12:07;99288.26;;;9.21;100.00
11515;BME280;5814;41.936;25.556;2022-12-07T02:14:34;99296.67;;;9.36;100.00
11515;BME280;5814;41.936;25.556;2022-12-07T02:17:05;99297.31;;;9.47;100.00
11515;BME280;5814;41.936;25.556;2022-12-07T02:19:47;99297.66;;;9.52;100.00
11515;BME280;5814;41.936;25.556;2022-12-07T02:22:31;99295.95;;;9.51;100.00
11515;BME280;5814;41.936;25.556;2022-12-07T02:24:55;99299.00;;;9.28;100.00
11515;BME280;5814;41.936;25.556;2022-12-07T02:30:11;99299.23;;;9.39;100.00
11515;BME280;5814;41.936;25.556;2022-12-07T02:32:43;99288.77;;;9.41;100.00
11515;BME280;5814;41.936;25.556;2022-12-07T02:35:30;99291.80;;;9.41;100.00
11515;BME280;5814;41.936;25.556;2022-12-07T02:38:14;99288.72;;;9.43;100.00
11515;BME280;5814;41.936;25.556;2022-12-07T02:40:48;99283.42;;;9.47;100.00
11515;BME280;5814;41.936;25.556;2022-12-07T02:43:19;99275.47;;;9.54;100.00
11515;BME280;5814;41.936;25.556;2022-12-07T02:45:44;99275.63;;;9.46;100.00
11515;BME280;5814;41.936;25.556;2022-12-07T02:48:12;99276.70;;;9.58;100.00
11515;BME280;5814;41.936;25.556;2022-12-07T02:50:39;99278.42;;;9.57;100.00
11515;BME280;5814;41.936;25.556;2022-12-07T02:53:27;99276.94;;;9.46;100.00
11515;BME280;5814;41.936;25.556;2022-12-07T02:55:37;99273.25;;;9.35;100.00
11515;BME280;5814;41.936;25.556;2022-12-07T02:58:27;99275.61;;;9.47;100.00
11515;BME280;5814;41.936;25.556;2022-12-07T03:00:56;99245.66;;;9.25;100.00
11515;BME280;5814;41.936;25.556;2022-12-07T03:03:19;99270.72;;;9.32;100.00
11515;BME280;5814;41.936;25.556;2022-12-07T03:05:52;99272.02;;;9.54;100.00
11515;BME280;5814;41.936;25.556;2022-12-07T03:08:31;99265.76;;;9.62;100.00
11515;BME280;5814;41.936;25.556;2022-12-07T03:11:00;99274.02;;;9.61;100.00
11515;BME280;5814;41.936;25.556;2022-12-07T03:16:17;99254.63;;;9.54;100.00
11515;BME280;5814;41.936;25.556;2022-12-07T03:18:51;99271.30;;;9.46;100.00
11515;BME280;5814;41.936;25.556;2022-12-07T03:21:18;99280.66;;;9.55;100.00
11515;BME280;5814;41.936;25.556;2022-12-07T03:23:44;99277.41;;;9.44;100.00
11515;BME280;5814;41.936;25.556;2022-12-07T03:26:11;99282.21;;;9.43;100.00
11515;BME280;5814;41.936;25.556;2022-12-07T03:28:39;99272.53;;;9.49;100.00
11515;BME280;5814;41.936;25.556;2022-12-07T03:31:15;99280.66;;;9.55;100.00
11515;BME280;5814;41.936;25.556;2022-12-07T03:33:42;99279.66;;;9.41;100.00
11515;BME280;5814;41.936;25.556;2022-12-07T03:36:31;99271.64;;;9.29;100.00
11515;BME280;5814;41.936;25.556;2022-12-07T03:39:03;99263.95;;;9.22;100.00
11515;BME280;5814;41.936;25.556;2022-12-07T03:41:30;99279.10;;;9.24;100.00
11515;BME280;5814;41.936;25.556;2022-12-07T03:43:56;99264.72;;;9.28;100.00
11515;BME280;5814;41.936;25.556;2022-12-07T03:47:35;99262.08;;;9.30;100.00
11515;BME280;5814;41.936;25.556;2022-12-07T03:49:16;99268.14;;;9.07;100.00
11515;BME280;5814;41.936;25.556;2022-12-07T03:51:45;99260.59;;;9.17;100.00
11515;BME280;5814;41.936;25.556;2022-12-07T03:54:11;99259.98;;;9.25;100.00
11515;BME280;5814;41.936;25.556;2022-12-07T03:56:37;99266.95;;;9.25;100.00
11515;BME280;5814;41.936;25.556;2022-12-07T03:59:04;99267.64;;;9.33;100.00
11515;BME280;5814;41.936;25.556;2022-12-07T04:01:31;99266.34;;;9.34;100.00
11515;BME280;5814;41.936;25.556;2022-12-07T04:03:59;99265.75;;;9.41;100.00
11515;BME280;5814;41.936;25.556;2022-12-07T04:06:26;99245.73;;;9.22;100.00
11515;BME280;5814;41.936;25.556;2022-12-07T04:08:53;99259.50;;;9.29;100.00
11515;BME280;5814;41.936;25.556;2022-12-07T04:11:20;99258.80;;;9.42;100.00
11515;BME280;5814;41.936;25.556;2022-12-07T04:13:47;99263.94;;;9.45;100.00
11515;BME280;5814;41.936;25.556;2022-12-07T04:16:20;99262.70;;;9.42;100.00
11515;BME280;5814;41.936;25.556;2022-12-07T04:18:47;99260.50;;;9.22;100.00
11515;BME280;5814;41.936;25.556;2022-12-07T04:21:14;99258.70;;;9.25;100.00
11515;BME280;5814;41.936;25.556;2022-12-07T04:23:41;99255.11;;;9.30;100.00
11515;BME280;5814;41.936;25.556;2022-12-07T04:26:09;99266.00;;;9.28;100.00
11515;BME280;5814;41.936;25.556;2022-12-07T04:28:36;99261.89;;;9.38;100.00
11515;BME280;5814;41.936;25.556;2022-12-07T04:31:03;99261.53;;;9.35;100.00
11515;BME280;5814;41.936;25.556;2022-12-07T04:33:30;99249.45;;;9.31;100.00
11515;BME280;5814;41.936;25.556;2022-12-07T04:35:57;99260.92;;;9.43;100.00
11515;BME280;5814;41.936;25.556;2022-12-07T04:38:24;99257.98;;;9.38;100.00
11515;BME280;5814;41.936;25.556;2022-12-07T04:40:52;99259.22;;;9.42;100.00
11515;BME280;5814;41.936;25.556;2022-12-07T04:43:19;99249.27;;;9.40;100.00
11515;BME280;5814;41.936;25.556;2022-12-07T04:45:47;99252.48;;;9.31;100.00
11515;BME280;5814;41.936;25.556;2022-12-07T04:48:14;99249.70;;;9.19;100.00
11515;BME280;5814;41.936;25.556;2022-12-07T04:50:41;99244.11;;;9.16;100.00
11515;BME280;5814;41.936;25.556;2022-12-07T04:53:08;99240.33;;;9.11;100.00
11515;BME280;5814;41.936;25.556;2022-12-07T04:55:35;99247.17;;;9.15;100.00
11515;BME280;5814;41.936;25.556;2022-12-07T04:58:03;99250.66;;;9.14;100.00
11515;BME280;5814;41.936;25.556;2022-12-07T05:00:30;99248.63;;;9.08;100.00
11515;BME280;5814;41.936;25.556;2022-12-07T05:02:57;99248.83;;;9.20;100.00
11515;BME280;5814;41.936;25.556;2022-12-07T05:05:24;99259.47;;;9.30;100.00
11515;BME280;5814;41.936;25.556;2022-12-07T05:07:51;99256.64;;;9.41;100.00
11515;BME280;5814;41.936;25.556;2022-12-07T05:10:18;99262.16;;;9.47;100.00
11515;BME280;5814;41.936;25.556;2022-12-07T05:12:46;99264.56;;;9.35;100.00
11515;BME280;5814;41.936;25.556;2022-12-07T05:15:13;99263.27;;;9.35;100.00
11515;BME280;5814;41.936;25.556;2022-12-07T05:17:40;99257.62;;;9.40;100.00
11515;BME280;5814;41.936;25.556;2022-12-07T05:20:08;99267.53;;;9.39;100.00
11515;BME280;5814;41.936;25.556;2022-12-07T05:22:35;99261.56;;;9.34;100.00
11515;BME280;5814;41.936;25.556;2022-12-07T05:25:02;99258.58;;;9.32;100.00
11515;BME280;5814;41.936;25.556;2022-12-07T05:27:29;99255.25;;;9.24;100.00
11515;BME280;5814;41.936;25.556;2022-12-07T05:29:57;99259.56;;;9.25;100.00
11515;BME280;5814;41.936;25.556;2022-12-07T05:32:24;99250.56;;;9.20;100.00
11515;BME280;5814;41.936;25.556;2022-12-07T05:34:51;99260.77;;;9.08;100.00
11515;BME280;5814;41.936;25.556;2022-12-07T05:37:18;99254.75;;;9.05;100.00
11515;BME280;5814;41.936;25.556;2022-12-07T05:39:45;99255.00;;;8.91;100.00
11515;BME280;5814;41.936;25.556;2022-12-07T05:42:12;99251.91;;;8.45;100.00
11515;BME280;5814;41.936;25.556;2022-12-07T05:44:43;99237.38;;;8.58;100.00
11515;BME280;5814;41.936;25.556;2022-12-07T05:47:10;99233.53;;;8.55;100.00
11515;BME280;5814;41.936;25.556;2022-12-07T05:49:37;99250.02;;;8.78;100.00
11515;BME280;5814;41.936;25.556;2022-12-07T05:52:04;99253.70;;;8.92;100.00
11515;BME280;5814;41.936;25.556;2022-12-07T05:54:31;99252.76;;;8.95;100.00
11515;BME280;5814;41.936;25.556;2022-12-07T05:56:58;99258.11;;;9.10;100.00
11515;BME280;5814;41.936;25.556;2022-12-07T05:59:25;99247.31;;;9.07;100.00
11515;BME280;5814;41.936;25.556;2022-12-07T06:01:57;99250.92;;;9.00;100.00
11515;BME280;5814;41.936;25.556;2022-12-07T06:04:25;99254.41;;;9.00;100.00
11515;BME280;5814;41.936;25.556;2022-12-07T06:06:51;99264.62;;;9.10;100.00
11515;BME280;5814;41.936;25.556;2022-12-07T06:09:18;99268.34;;;8.98;100.00
11515;BME280;5814;41.936;25.556;2022-12-07T06:11:45;99272.92;;;9.08;100.00
11515;BME280;5814;41.936;25.556;2022-12-07T06:14:18;99275.78;;;9.17;100.00
11515;BME280;5814;41.936;25.556;2022-12-07T06:16:45;99269.95;;;9.27;100.00
11515;BME280;5814;41.936;25.556;2022-12-07T06:19:12;99276.64;;;9.39;100.00
11515;BME280;5814;41.936;25.556;2022-12-07T06:21:39;99278.33;;;9.42;100.00
11515;BME280;5814;41.936;25.556;2022-12-07T06:24:06;99271.52;;;9.35;100.00
11515;BME280;5814;41.936;25.556;2022-12-07T06:26:34;99267.88;;;9.43;100.00
11515;BME280;5814;41.936;25.556;2022-12-07T06:29:01;99273.42;;;9.47;100.00
11515;BME280;5814;41.936;25.556;2022-12-07T06:31:28;99269.62;;;9.44;100.00
11515;BME280;5814;41.936;25.556;2022-12-07T06:33:59;99273.86;;;9.48;100.00
11515;BME280;5814;41.936;25.556;2022-12-07T06:36:25;99264.27;;;9.51;100.00
11515;BME280;5814;41.936;25.556;2022-12-07T06:38:53;99258.05;;;9.58;100.00
11515;BME280;5814;41.936;25.556;2022-12-07T06:41:20;99275.36;;;9.60;100.00
11515;BME280;5814;41.936;25.556;2022-12-07T06:43:47;99262.51;;;9.71;100.00
11515;BME280;5814;41.936;25.556;2022-12-07T06:46:14;99268.66;;;9.88;100.00
11515;BME280;5814;41.936;25.556;2022-12-07T06:48:42;99267.60;;;9.77;100.00
11515;BME280;5814;41.936;25.556;2022-12-07T06:51:09;99272.49;;;9.92;100.00
11515;BME280;5814;41.936;25.556;2022-12-07T06:53:36;99285.61;;;9.68;100.00
11515;BME280;5814;41.936;25.556;2022-12-07T06:56:04;99284.19;;;10.12;100.00
11515;BME280;5814;41.936;25.556;2022-12-07T06:58:31;99270.36;;;10.09;100.00
11515;BME280;5814;41.936;25.556;2022-12-07T07:00:58;99279.81;;;10.35;100.00
11515;BME280;5814;41.936;25.556;2022-12-07T07:03:25;99278.80;;;10.40;100.00
11515;BME280;5814;41.936;25.556;2022-12-07T07:05:52;99283.75;;;10.33;100.00
11515;BME280;5814;41.936;25.556;2022-12-07T07:08:20;99281.02;;;10.39;100.00
11515;BME280;5814;41.936;25.556;2022-12-07T07:10:47;99280.69;;;10.33;100.00
11515;BME280;5814;41.936;25.556;2022-12-07T07:13:14;99286.41;;;10.31;100.00
11515;BME280;5814;41.936;25.556;2022-12-07T07:15:41;99286.73;;;10.36;100.00
11515;BME280;5814;41.936;25.556;2022-12-07T07:18:08;99288.51;;;10.52;100.00
11515;BME280;5814;41.936;25.556;2022-12-07T07:20:36;99291.72;;;10.63;100.00
11515;BME280;5814;41.936;25.556;2022-12-07T07:23:03;99286.95;;;10.62;100.00
11515;BME280;5814;41.936;25.556;2022-12-07T07:25:30;99256.52;;;10.45;100.00
11515;BME280;5814;41.936;25.556;2022-12-07T07:27:57;99282.23;;;10.42;100.00
11515;BME280;5814;41.936;25.556;2022-12-07T07:30:24;99278.16;;;10.30;100.00
11515;BME280;5814;41.936;25.556;2022-12-07T07:32:55;99268.97;;;10.51;100.00
11515;BME280;5814;41.936;25.556;2022-12-07T07:35:19;99268.63;;;10.64;100.00
11515;BME280;5814;41.936;25.556;2022-12-07T07:37:46;99268.17;;;10.65;100.00
11515;BME280;5814;41.936;25.556;2022-12-07T07:40:13;99268.25;;;10.79;100.00
11515;BME280;5814;41.936;25.556;2022-12-07T07:42:40;99277.22;;;10.86;100.00
11515;BME280;5814;41.936;25.556;2022-12-07T07:45:08;99279.63;;;11.10;100.00
11515;BME280;5814;41.936;25.556;2022-12-07T07:47:35;99288.81;;;10.91;100.00
11515;BME280;5814;41.936;25.556;2022-12-07T07:50:03;99282.15;;;11.14;100.00
11515;BME280;5814;41.936;25.556;2022-12-07T07:52:31;99275.28;;;11.10;100.00
11515;BME280;5814;41.936;25.556;2022-12-07T07:54:58;99282.41;;;11.36;100.00
11515;BME280;5814;41.936;25.556;2022-12-07T07:57:25;99285.46;;;11.67;100.00
11515;BME280;5814;41.936;25.556;2022-12-07T07:59:52;99281.56;;;11.80;100.00
11515;BME280;5814;41.936;25.556;2022-12-07T08:02:20;99276.20;;;11.85;100.00
11515;BME280;5814;41.936;25.556;2022-12-07T08:04:47;99266.25;;;11.53;100.00
11515;BME280;5814;41.936;25.556;2022-12-07T08:07:14;99282.09;;;11.62;100.00
11515;BME280;5814;41.936;25.556;2022-12-07T08:09:41;99291.02;;;11.71;100.00
11515;BME280;5814;41.936;25.556;2022-12-07T08:12:08;99287.19;;;11.67;100.00
11515;BME280;5814;41.936;25.556;2022-12-07T08:14:36;99286.14;;;11.58;100.00
11515;BME280;5814;41.936;25.556;2022-12-07T08:17:03;99287.61;;;11.52;100.00
11515;BME280;5814;41.936;25.556;2022-12-07T08:19:30;99286.11;;;11.58;100.00
11515;BME280;5814;41.936;25.556;2022-12-07T08:21:57;99289.97;;;11.76;100.00
11515;BME280;5814;41.936;25.556;2022-12-07T08:24:25;99281.97;;;11.97;100.00
11515;BME280;5814;41.936;25.556;2022-12-07T08:26:52;99279.80;;;11.36;100.00
11515;BME280;5814;41.936;25.556;2022-12-07T08:29:19;99278.66;;;12.06;100.00
11515;BME280;5814;41.936;25.556;2022-12-07T08:31:46;99288.82;;;11.85;100.00
11515;BME280;5814;41.936;25.556;2022-12-07T08:34:13;99287.78;;;11.61;100.00
11515;BME280;5814;41.936;25.556;2022-12-07T08:36:41;99290.52;;;11.25;100.00
11515;BME280;5814;41.936;25.556;2022-12-07T08:39:08;99294.89;;;10.93;100.00
11515;BME280;5814;41.936;25.556;2022-12-07T08:41:35;99287.39;;;11.29;100.00
11515;BME280;5814;41.936;25.556;2022-12-07T08:44:02;99282.06;;;11.63;100.00
11515;BME280;5814;41.936;25.556;2022-12-07T08:46:40;99281.83;;;11.57;100.00
11515;BME280;5814;41.936;25.556;2022-12-07T08:49:09;99260.95;;;11.40;100.00
11515;BME280;5814;41.936;25.556;2022-12-07T08:51:35;99268.86;;;11.68;100.00
11515;BME280;5814;41.936;25.556;2022-12-07T08:54:03;99271.53;;;11.80;100.00
11515;BME280;5814;41.936;25.556;2022-12-07T08:56:29;99267.80;;;11.90;100.00
11515;BME280;5814;41.936;25.556;2022-12-07T08:58:57;99267.84;;;11.73;100.00
11515;BME280;5814;41.936;25.556;2022-12-07T09:01:24;99264.75;;;11.45;100.00
11515;BME280;5814;41.936;25.556;2022-12-07T09:03:51;99261.09;;;11.35;100.00
11515;BME280;5814;41.936;25.556;2022-12-07T09:06:18;99249.86;;;11.48;100.00
11515;BME280;5814;41.936;25.556;2022-12-07T09:08:46;99250.14;;;11.67;100.00
11515;BME280;5814;41.936;25.556;2022-12-07T09:11:12;99240.90;;;12.28;100.00
11515;BME280;5814;41.936;25.556;2022-12-07T09:13:40;99241.17;;;12.59;100.00
11515;BME280;5814;41.936;25.556;2022-12-07T09:16:07;99245.37;;;12.11;100.00
11515;BME280;5814;41.936;25.556;2022-12-07T09:18:34;99255.22;;;11.88;100.00
11515;BME280;5814;41.936;25.556;2022-12-07T09:21:01;99234.20;;;12.06;100.00
11515;BME280;5814;41.936;25.556;2022-12-07T09:23:28;99233.70;;;12.07;100.00
11515;BME280;5814;41.936;25.556;2022-12-07T09:25:59;99233.52;;;11.84;100.00
11515;BME280;5814;41.936;25.556;2022-12-07T09:28:23;99220.17;;;11.94;100.00
11515;BME280;5814;41.936;25.556;2022-12-07T09:30:50;99223.44;;;11.72;100.00
11515;BME280;5814;41.936;25.556;2022-12-07T09:33:17;99222.11;;;12.02;100.00
11515;BME280;5814;41.936;25.556;2022-12-07T09:35:45;99217.02;;;12.38;100.00
11515;BME280;5814;41.936;25.556;2022-12-07T09:38:12;99214.72;;;12.54;100.00
11515;BME280;5814;41.936;25.556;2022-12-07T09:40:39;99211.53;;;12.59;100.00
11515;BME280;5814;41.936;25.556;2022-12-07T09:43:10;99206.56;;;12.64;100.00
11515;BME280;5814;41.936;25.556;2022-12-07T09:45:34;99210.06;;;11.97;100.00
11515;BME280;5814;41.936;25.556;2022-12-07T09:48:00;99205.17;;;12.41;100.00
11515;BME280;5814;41.936;25.556;2022-12-07T09:50:28;99208.45;;;12.60;100.00
11515;BME280;5814;41.936;25.556;2022-12-07T09:52:56;99209.36;;;12.83;100.00
11515;BME280;5814;41.936;25.556;2022-12-07T09:55:25;99205.17;;;12.78;100.00
11515;BME280;5814;41.936;25.556;2022-12-07T09:57:51;99197.44;;;13.00;100.00
11515;BME280;5814;41.936;25.556;2022-12-07T10:00:19;99189.26;;;12.93;100.00
11515;BME280;5814;41.936;25.556;2022-12-07T10:02:48;99206.02;;;12.41;100.00
11515;BME280;5814;41.936;25.556;2022-12-07T10:05:16;99198.70;;;12.64;100.00
11515;BME280;5814;41.936;25.556;2022-12-07T10:07:43;99169.84;;;12.53;100.00
11515;BME280;5814;41.936;25.556;2022-12-07T10:10:13;99184.39;;;12.61;100.00
11515;BME280;5814;41.936;25.556;2022-12-07T10:12:56;99185.27;;;12.74;100.00
11515;BME280;5814;41.936;25.556;2022-12-07T10:15:22;99185.23;;;13.11;100.00
11515;BME280;5814;41.936;25.556;2022-12-07T10:17:51;99181.42;;;12.96;100.00
11515;BME280;5814;41.936;25.556;2022-12-07T10:20:23;99184.52;;;13.32;100.00
11515;BME280;5814;41.936;25.556;2022-12-07T10:22:56;99176.08;;;13.23;100.00
11515;BME280;5814;41.936;25.556;2022-12-07T10:25:23;99176.16;;;13.20;100.00
11515;BME280;5814;41.936;25.556;2022-12-07T10:27:57;99173.23;;;13.17;100.00
11515;BME280;5814;41.936;25.556;2022-12-07T10:30:23;99179.20;;;13.21;100.00
11515;BME280;5814;41.936;25.556;2022-12-07T10:32:51;99171.13;;;13.26;100.00
11515;BME280;5814;41.936;25.556;2022-12-07T10:35:22;99165.72;;;13.20;100.00
11515;BME280;5814;41.936;25.556;2022-12-07T10:37:48;99160.76;;;13.48;100.00
11515;BME280;5814;41.936;25.556;2022-12-07T10:40:26;99163.28;;;13.50;100.00
11515;BME280;5814;41.936;25.556;2022-12-07T10:43:32;99159.97;;;13.22;100.00
11515;BME280;5814;41.936;25.556;2022-12-07T10:51:27;99166.14;;;12.34;100.00
11515;BME280;5814;41.936;25.556;2022-12-07T10:54:04;99158.98;;;12.52;100.00
11515;BME280;5814;41.936;25.556;2022-12-07T10:56:43;99157.48;;;12.58;100.00
11515;BME280;5814;41.936;25.556;2022-12-07T10:59:28;99136.67;;;12.28;100.00
11515;BME280;5814;41.936;25.556;2022-12-07T11:02:10;99149.14;;;12.46;100.00
11515;BME280;5814;41.936;25.556;2022-12-07T11:04:33;99151.47;;;12.92;100.00
11515;BME280;5814;41.936;25.556;2022-12-07T11:07:14;99142.95;;;13.09;100.00
11515;BME280;5814;41.936;25.556;2022-12-07T11:11:00;99140.16;;;13.14;100.00
11515;BME280;5814;41.936;25.556;2022-12-07T11:13:08;99131.08;;;13.47;100.00
11515;BME280;5814;41.936;25.556;2022-12-07T11:16:08;99137.91;;;13.62;100.00
11515;BME280;5814;41.936;25.556;2022-12-07T11:21:09;99116.76;;;13.89;100.00
11515;BME280;5814;41.936;25.556;2022-12-07T11:26:29;99117.47;;;14.24;100.00
11515;BME280;5814;41.936;25.556;2022-12-07T11:29:05;99122.25;;;14.24;100.00
11515;BME280;5814;41.936;25.556;2022-12-07T11:34:46;99105.39;;;13.88;100.00
11515;BME280;5814;41.936;25.556;2022-12-07T11:37:12;99109.00;;;14.17;100.00
11515;BME280;5814;41.936;25.556;2022-12-07T11:39:46;99121.59;;;14.09;100.00
11515;BME280;5814;41.936;25.556;2022-12-07T11:42:16;99116.83;;;13.65;100.00
11515;BME280;5814;41.936;25.556;2022-12-07T11:44:50;99104.45;;;13.58;100.00
11515;BME280;5814;41.936;25.556;2022-12-07T11:47:27;99090.59;;;13.54;100.00
11515;BME280;5814;41.936;25.556;2022-12-07T11:50:03;99087.98;;;13.32;100.00
11515;BME280;5814;41.936;25.556;2022-12-07T11:52:27;99098.53;;;13.18;100.00
11515;BME280;5814;41.936;25.556;2022-12-07T11:54:52;99086.70;;;13.31;100.00
11515;BME280;5814;41.936;25.556;2022-12-07T11:57:22;99078.64;;;13.36;100.00
11515;BME280;5814;41.936;25.556;2022-12-07T11:59:48;99078.30;;;13.34;100.00
11515;BME280;5814;41.936;25.556;2022-12-07T12:02:16;99068.20;;;13.35;100.00
11515;BME280;5814;41.936;25.556;2022-12-07T12:05:05;99064.51;;;13.40;100.00
11515;BME280;5814;41.936;25.556;2022-12-07T12:07:29;99073.33;;;13.26;100.00
11515;BME280;5814;41.936;25.556;2022-12-07T12:10:00;99067.82;;;13.33;100.00
11515;BME280;5814;41.936;25.556;2022-12-07T12:12:48;99070.63;;;13.40;100.00
11515;BME280;5814;41.936;25.556;2022-12-07T12:15:20;99063.36;;;13.57;100.00
11515;BME280;5814;41.936;25.556;2022-12-07T12:18:04;99066.64;;;13.74;100.00
11515;BME280;5814;41.936;25.556;2022-12-07T12:20:29;99069.77;;;13.61;100.00
11515;BME280;5814;41.936;25.556;2022-12-07T12:25:44;99061.72;;;13.77;100.00
11515;BME280;5814;41.936;25.556;2022-12-07T12:28:24;99062.13;;;13.46;100.00
11515;BME280;5814;41.936;25.556;2022-12-07T12:31:09;99063.55;;;13.31;100.00
11515;BME280;5814;41.936;25.556;2022-12-07T12:33:34;99061.18;;;13.13;100.00
11515;BME280;5814;41.936;25.556;2022-12-07T12:39:14;99049.95;;;13.09;100.00
11515;BME280;5814;41.936;25.556;2022-12-07T12:41:55;99050.94;;;12.60;100.00
11515;BME280;5814;41.936;25.556;2022-12-07T12:44:39;99043.44;;;12.39;100.00
11515;BME280;5814;41.936;25.556;2022-12-07T12:50:22;99049.39;;;12.42;100.00
11515;BME280;5814;41.936;25.556;2022-12-07T12:52:50;99057.52;;;12.60;100.00
11515;BME280;5814;41.936;25.556;2022-12-07T12:55:17;99049.59;;;12.61;100.00
11515;BME280;5814;41.936;25.556;2022-12-07T12:57:44;99059.29;;;12.58;100.00
11515;BME280;5814;41.936;25.556;2022-12-07T13:00:18;99052.97;;;12.64;100.00
11515;BME280;5814;41.936;25.556;2022-12-07T13:02:49;99047.47;;;12.59;100.00
11515;BME280;5814;41.936;25.556;2022-12-07T13:05:18;99037.63;;;12.54;100.00
11515;BME280;5814;41.936;25.556;2022-12-07T13:07:53;99038.19;;;12.63;100.00
11515;BME280;5814;41.936;25.556;2022-12-07T13:10:21;99038.63;;;12.39;100.00
11515;BME280;5814;41.936;25.556;2022-12-07T13:12:58;99034.70;;;12.20;100.00
11515;BME280;5814;41.936;25.556;2022-12-07T13:15:32;99039.73;;;12.20;100.00
11515;BME280;5814;41.936;25.556;2022-12-07T13:17:59;99038.80;;;12.22;100.00
11515;BME280;5814;41.936;25.556;2022-12-07T13:23:04;99055.14;;;12.28;100.00
11515;BME280;5814;41.936;25.556;2022-12-07T13:28:17;99044.15;;;12.30;100.00
11515;BME280;5814;41.936;25.556;2022-12-07T13:31:01;99041.98;;;12.31;100.00
11515;BME280;5814;41.936;25.556;2022-12-07T13:33:27;99040.66;;;12.19;100.00
11515;BME280;5814;41.936;25.556;2022-12-07T13:35:54;99036.94;;;11.99;100.00
11515;BME280;5814;41.936;25.556;2022-12-07T13:38:30;99035.58;;;12.15;100.00
11515;BME280;5814;41.936;25.556;2022-12-07T13:41:03;99034.36;;;12.11;100.00
11515;BME280;5814;41.936;25.556;2022-12-07T13:43:30;99042.59;;;11.86;100.00
11515;BME280;5814;41.936;25.556;2022-12-07T13:45:57;99046.36;;;11.93;100.00